createdAt,value
2023-04-18T00:00:12.234Z,30.34
2023-04-18T00:05:18.214Z,30.25
2023-04-18T00:10:21.193Z,30.38
2023-04-18T00:15:25.807Z,30.24
2023-04-18T00:20:28.623Z,30.27
2023-04-18T00:25:31.439Z,30.36
2023-04-18T00:30:35.653Z,30.61
2023-04-18T00:35:39.044Z,30.25
2023-04-18T00:40:42.092Z,30.23
2023-04-18T00:45:46.462Z,30.33
2023-04-18T00:50:49.315Z,30.24
2023-04-18T00:55:52.501Z,30.16
2023-04-18T01:00:56.726Z,30.37
2023-04-18T01:06:01.031Z,30.18
2023-04-18T01:11:03.898Z,30.36
2023-04-18T01:16:08.668Z,30.21
2023-04-18T01:21:11.570Z,30.28
2023-04-18T01:26:15.786Z,30.21
2023-04-18T01:31:18.686Z,30.18
2023-04-18T01:36:21.762Z,30.18
2023-04-18T01:41:26.037Z,30.26
2023-04-18T01:46:29.121Z,30.33
2023-04-18T01:51:32.210Z,30.27
2023-04-18T01:56:36.448Z,30.14
2023-04-18T02:01:39.307Z,30.24
2023-04-18T02:06:42.111Z,30.23
2023-04-18T02:11:46.569Z,30.24
2023-04-18T02:16:49.534Z,30.28
2023-04-18T02:21:52.647Z,30.32
2023-04-18T02:26:56.791Z,30.21
2023-04-18T02:32:00.109Z,30.27
2023-04-18T02:37:03.085Z,30.21
2023-04-18T02:42:07.284Z,30.40
2023-04-18T02:47:10.132Z,30.23
2023-04-18T02:52:13.016Z,30.42
2023-04-18T02:57:17.321Z,30.30
2023-04-18T03:02:20.897Z,30.43
2023-04-18T03:07:23.869Z,30.37
2023-04-18T03:12:28.443Z,30.24
2023-04-18T03:17:31.340Z,30.35
2023-04-18T03:22:34.189Z,30.41
2023-04-18T03:27:38.419Z,30.49
2023-04-18T03:32:42.258Z,30.32
2023-04-18T03:37:45.292Z,30.49
2023-04-18T03:42:49.455Z,30.42
2023-04-18T03:47:52.421Z,30.48
2023-04-18T03:52:55.280Z,30.49
2023-04-18T03:57:59.476Z,30.52
2023-04-18T04:03:02.684Z,30.46
2023-04-18T04:08:05.916Z,30.57
2023-04-18T04:13:11.319Z,30.36
2023-04-18T04:18:14.412Z,30.46
2023-04-18T04:23:17.478Z,30.47
2023-04-18T04:28:22.731Z,30.49
2023-04-18T04:33:29.003Z,30.52
2023-04-18T04:38:31.940Z,30.53
2023-04-18T04:43:38.228Z,30.55
2023-04-18T04:48:42.490Z,30.46
2023-04-18T04:53:45.538Z,30.58
2023-04-18T04:58:50.879Z,30.65
2023-04-18T05:03:55.146Z,30.52
2023-04-18T05:08:59.564Z,30.62
2023-04-18T05:14:03.751Z,30.61
2023-04-18T05:19:06.753Z,30.71
2023-04-18T05:24:10.656Z,30.61
2023-04-18T05:29:14.790Z,30.61
2023-04-18T05:34:17.636Z,30.62
2023-04-18T05:39:20.450Z,30.70
2023-04-18T05:44:25.293Z,30.62
2023-04-18T05:49:28.450Z,30.81
2023-04-18T05:54:31.323Z,30.72
2023-04-18T05:59:35.504Z,30.51
2023-04-18T06:04:38.510Z,30.67
2023-04-18T06:09:41.662Z,30.67
2023-04-18T06:14:45.911Z,30.79
2023-04-18T06:19:48.757Z,30.73
2023-04-18T06:24:51.899Z,30.76
2023-04-18T06:29:56.047Z,30.79
2023-04-18T06:34:58.834Z,30.74
2023-04-18T06:40:02.163Z,30.58
2023-04-18T06:45:08.064Z,30.67
2023-04-18T06:50:11.457Z,30.58
2023-04-18T06:55:15.089Z,30.67
2023-04-18T07:00:19.846Z,30.69
2023-04-18T07:05:22.843Z,30.70
2023-04-18T07:10:26.041Z,30.68
2023-04-18T07:15:30.285Z,30.78
2023-04-18T07:20:33.098Z,30.64
2023-04-18T07:25:36.614Z,30.89
2023-04-18T07:30:40.899Z,32.25
2023-04-18T07:35:45.978Z,32.61
2023-04-18T07:40:58.167Z,32.82
2023-04-18T07:46:02.578Z,32.70
2023-04-18T07:51:05.679Z,32.65
2023-04-18T07:56:08.661Z,32.74
2023-04-18T08:01:15.206Z,32.65
2023-04-18T08:06:18.821Z,32.35
2023-04-18T08:11:21.641Z,32.08
2023-04-18T08:16:28.378Z,32.08
2023-04-18T08:21:33.029Z,32.24
2023-04-18T08:26:35.973Z,32.29
2023-04-18T08:31:41.188Z,32.70
2023-04-18T08:36:44.779Z,32.66
2023-04-18T08:41:54.934Z,32.37
2023-04-18T08:47:01.559Z,32.42
2023-04-18T08:52:09.998Z,32.24
2023-04-18T08:57:16.484Z,32.36
2023-04-18T09:02:23.234Z,31.99
2023-04-18T09:07:29.448Z,32.01
2023-04-18T09:12:32.570Z,31.78
2023-04-18T09:17:38.987Z,31.87
2023-04-18T09:22:50.601Z,31.79
2023-04-18T09:27:53.572Z,31.83
2023-04-18T09:33:00.317Z,31.84
2023-04-18T09:38:03.240Z,31.63
2023-04-18T09:43:19.205Z,31.70
2023-04-18T09:48:23.458Z,31.54
2023-04-18T09:53:26.401Z,31.63
2023-04-18T09:58:31.197Z,31.66
2023-04-18T10:03:46.135Z,31.65
2023-04-18T10:08:49.397Z,31.54
2023-04-18T10:13:56.276Z,31.63
2023-04-18T10:19:23.021Z,31.72
2023-04-18T10:24:53.014Z,31.69
2023-04-18T10:29:56.111Z,31.21
2023-04-18T10:35:00.917Z,32.06
2023-04-18T10:40:06.539Z,31.07
2023-04-18T10:45:19.181Z,30.93
2023-04-18T10:50:23.468Z,31.12
2023-04-18T10:55:29.900Z,30.72
2023-04-18T11:00:33.043Z,30.80
2023-04-18T11:05:37.907Z,30.82
2023-04-18T11:10:41.749Z,30.96
2023-04-18T11:15:44.598Z,30.87
2023-04-18T11:20:51.391Z,31.09
2023-04-18T11:25:56.648Z,30.67
2023-04-18T11:31:00.481Z,31.49
2023-04-18T11:36:06.623Z,30.53
2023-04-18T11:41:14.810Z,30.51
2023-04-18T11:46:17.981Z,30.51
2023-04-18T11:51:38.953Z,30.67
2023-04-18T11:56:48.106Z,30.79
2023-04-18T12:02:08.883Z,30.58
2023-04-18T12:07:31.097Z,31.21
2023-04-18T12:12:34.391Z,31.28
2023-04-18T12:17:38.817Z,31.18
2023-04-18T12:22:46.251Z,31.05
2023-04-18T12:27:54.060Z,31.00
2023-04-18T12:32:58.849Z,31.34
2023-04-18T12:38:03.718Z,31.28
2023-04-18T12:43:06.559Z,30.84
2023-04-18T12:48:09.477Z,31.33
2023-04-18T12:53:14.021Z,31.24
2023-04-18T12:58:18.839Z,31.38
2023-04-18T13:03:22.225Z,31.52
2023-04-18T13:08:26.818Z,31.52
2023-04-18T13:13:30.967Z,31.54
2023-04-18T13:18:33.903Z,31.47
2023-04-18T13:23:38.770Z,30.97
2023-04-18T13:28:41.642Z,31.53
2023-04-18T13:33:44.499Z,31.16
2023-04-18T13:38:48.746Z,30.83
2023-04-18T13:43:51.550Z,31.14
2023-04-18T13:48:54.392Z,31.04
2023-04-18T13:54:00.188Z,30.97
2023-04-18T13:59:03.000Z,30.73
2023-04-18T14:04:06.328Z,30.36
2023-04-18T14:09:12.095Z,30.29
2023-04-18T14:14:15.767Z,30.32
2023-04-18T14:19:20.408Z,29.67
2023-04-18T14:24:24.712Z,29.90
2023-04-18T14:29:28.490Z,29.39
2023-04-18T14:34:33.925Z,29.28
2023-04-18T14:39:39.076Z,29.42
2023-04-18T14:44:42.353Z,28.93
2023-04-18T14:49:45.203Z,29.50
2023-04-18T14:54:49.390Z,28.84
2023-04-18T14:59:58.036Z,28.78
2023-04-18T15:05:00.903Z,28.78
2023-04-18T15:10:04.926Z,28.61
2023-04-18T15:15:10.083Z,28.21
2023-04-18T15:20:13.054Z,27.96
2023-04-18T15:25:17.118Z,27.28
2023-04-18T15:30:21.523Z,26.66
2023-04-18T15:35:24.630Z,26.51
2023-04-18T15:40:27.458Z,23.55
2023-04-18T15:45:31.734Z,21.51
2023-04-18T15:50:34.636Z,22.25
2023-04-18T15:55:37.500Z,20.53
2023-04-18T16:00:41.659Z,20.67
2023-04-18T16:05:44.494Z,20.55
2023-04-18T16:10:47.322Z,21.08
2023-04-18T16:15:51.509Z,21.47
2023-04-18T16:20:54.363Z,22.54
2023-04-18T16:25:57.378Z,24.32
2023-04-18T16:31:01.570Z,24.56
2023-04-18T16:36:05.145Z,24.34
2023-04-18T16:41:07.969Z,25.88
2023-04-18T16:46:13.723Z,26.49
2023-04-18T16:51:16.584Z,27.11
2023-04-18T16:56:19.505Z,26.81
2023-04-18T17:01:23.703Z,27.44
2023-04-18T17:06:27.320Z,27.49
2023-04-18T17:11:32.118Z,27.67
2023-04-18T17:16:38.720Z,27.72
2023-04-18T17:21:41.638Z,27.80
2023-04-18T17:26:44.413Z,27.91
2023-04-18T17:31:48.681Z,28.66
2023-04-18T17:36:51.545Z,28.44
2023-04-18T17:41:54.389Z,28.59
2023-04-18T17:46:58.537Z,28.93
2023-04-18T17:52:02.310Z,29.17
2023-04-18T17:57:05.173Z,29.29
2023-04-18T18:02:11.670Z,29.20
2023-04-18T18:07:14.579Z,29.50
2023-04-18T18:12:17.357Z,29.68
2023-04-18T18:17:22.080Z,29.44
2023-04-18T18:22:26.071Z,29.88
2023-04-18T18:27:29.026Z,29.43
2023-04-18T18:32:33.185Z,30.09
2023-04-18T18:37:36.077Z,30.09
2023-04-18T18:42:39.069Z,29.82
2023-04-18T18:47:43.287Z,29.73
2023-04-18T18:52:46.823Z,29.91
2023-04-18T18:57:49.627Z,30.35
2023-04-18T19:02:53.882Z,30.23
2023-04-18T19:07:57.218Z,30.11
2023-04-18T19:13:01.138Z,30.15
2023-04-18T19:18:05.668Z,30.31
2023-04-18T19:23:08.532Z,30.25
2023-04-18T19:28:12.796Z,30.17
2023-04-18T19:33:17.290Z,30.60
2023-04-18T19:38:20.307Z,30.58
2023-04-18T19:43:23.115Z,30.33
2023-04-18T19:48:27.307Z,30.77
2023-04-18T19:53:30.093Z,30.83
2023-04-18T19:58:36.875Z,30.83
2023-04-18T20:03:41.765Z,30.65
2023-04-18T20:08:45.907Z,30.78
2023-04-18T20:13:48.966Z,30.81
2023-04-18T20:18:54.963Z,31.09
2023-04-18T20:23:59.293Z,31.05
2023-04-18T20:29:03.570Z,30.79
2023-04-18T20:34:07.775Z,30.92
2023-04-18T20:39:10.629Z,30.97
2023-04-18T20:44:13.731Z,31.04
2023-04-18T20:49:17.921Z,31.09
2023-04-18T20:54:20.762Z,30.84
2023-04-18T20:59:24.022Z,30.94
2023-04-18T21:04:28.522Z,31.03
2023-04-18T21:09:36.363Z,31.04
2023-04-18T21:14:39.696Z,30.94
2023-04-18T21:19:45.846Z,30.95
2023-04-18T21:24:48.679Z,30.87
2023-04-18T21:29:51.505Z,31.04
2023-04-18T21:34:57.678Z,31.11
2023-04-18T21:40:01.230Z,31.03
2023-04-18T21:45:04.597Z,31.10
2023-04-18T21:50:11.781Z,31.16
2023-04-18T21:55:16.562Z,31.11
2023-04-18T22:00:20.336Z,31.15
2023-04-18T22:05:26.295Z,31.15
2023-04-18T22:10:29.223Z,30.83
2023-04-18T22:15:32.063Z,31.03
2023-04-18T22:20:37.302Z,31.22
2023-04-18T22:25:40.618Z,31.20
2023-04-18T22:30:43.429Z,31.05
2023-04-18T22:35:48.802Z,31.08
2023-04-18T22:40:52.979Z,31.30
2023-04-18T22:45:55.833Z,31.22
2023-04-18T22:51:01.671Z,31.32
2023-04-18T22:56:05.178Z,31.16
2023-04-18T23:01:08.053Z,31.17
2023-04-18T23:06:12.265Z,31.17
2023-04-18T23:11:15.748Z,31.15
2023-04-18T23:16:18.642Z,31.23
2023-04-18T23:21:23.162Z,31.28
2023-04-18T23:26:26.200Z,31.10
2023-04-18T23:31:29.159Z,31.31
2023-04-18T23:36:33.464Z,31.30
2023-04-18T23:41:36.257Z,31.26
2023-04-18T23:46:40.590Z,31.38
2023-04-18T23:51:44.750Z,31.10
2023-04-18T23:56:47.569Z,31.12
